Time;durP1;ratioP1;P1;durP2;ratioP2;P2;SDS_P1;SDS_P2;PMS_P1;PMS_P2;Temp;Humidity;BMP_temperature;BMP_pressure;BME280_temperature;BME280_humidity;BME280_pressure;Samples;Min_cycle;Max_cycle;Signal;HPM_P1;HPM_P2
2022/08/31 00:06:05;;;;;;;3.60;1.10;;;;;;;-145.67;100.00;66521.78;4940428;28;20055;-69
2022/08/31 00:08:33;;;;;;;2.92;1.20;;;;;;;-145.67;100.00;66521.78;4940537;28;20046;-69
2022/08/31 00:10:59;;;;;;;3.25;1.08;;;;;;;-145.67;100.00;66521.78;4934786;28;20130;-70
2022/08/31 00:13:26;;;;;;;4.20;1.25;;;;;;;-145.67;100.00;66521.78;4941055;28;20041;-70
2022/08/31 00:15:54;;;;;;;2.65;1.50;;;;;;;-145.67;100.00;66521.78;4941125;28;20250;-70
2022/08/31 00:18:23;;;;;;;2.58;1.10;;;;;;;-145.67;100.00;66521.78;4940087;28;20049;-69
2022/08/31 00:20:50;;;;;;;2.67;1.30;;;;;;;-145.67;100.00;66521.78;4941515;28;20596;-70
2022/08/31 00:23:16;;;;;;;1.75;0.93;;;;;;;-145.67;100.00;66521.78;4941248;28;20039;-69
2022/08/31 00:25:45;;;;;;;2.55;1.10;;;;;;;-145.67;100.00;66521.78;4940406;28;20037;-70
2022/08/31 00:28:11;;;;;;;5.25;1.25;;;;;;;-145.67;100.00;66521.78;4923046;28;20035;-69
2022/08/31 00:30:40;;;;;;;2.83;1.20;;;;;;;-145.67;100.00;66521.78;4940085;28;20031;-68
2022/08/31 00:33:05;;;;;;;1.55;1.05;;;;;;;-145.67;100.00;66521.78;4939567;28;20047;-67
2022/08/31 00:35:34;;;;;;;2.47;1.05;;;;;;;-145.67;100.00;66521.78;4940445;28;20094;-68
2022/08/31 00:38:00;;;;;;;3.05;1.30;;;;;;;-145.67;100.00;66521.78;4922597;28;20046;-68
2022/08/31 00:40:26;;;;;;;2.20;1.10;;;;;;;-145.67;100.00;66521.78;4920131;28;20531;-69
2022/08/31 00:42:51;;;;;;;2.47;1.30;;;;;;;-145.67;100.00;66521.78;4940587;28;20134;-68
2022/08/31 00:45:17;;;;;;;3.78;1.25;;;;;;;-145.67;100.00;66521.78;4925127;28;20085;-68
2022/08/31 00:47:42;;;;;;;2.72;1.30;;;;;;;-145.67;100.00;66521.78;4939712;28;20106;-69
2022/08/31 00:50:09;;;;;;;2.33;1.35;;;;;;;-145.67;100.00;66521.78;4940811;28;20164;-69
2022/08/31 00:52:40;;;;;;;3.20;1.23;;;;;;;-145.67;100.00;66521.78;4938202;28;20069;-68
2022/08/31 00:55:18;;;;;;;3.50;1.35;;;;;;;-145.67;100.00;66521.78;4927156;28;20038;-69
2022/08/31 00:57:45;;;;;;;3.28;1.38;;;;;;;-145.67;100.00;66521.78;4927926;28;20057;-68
2022/08/31 01:00:14;;;;;;;3.22;1.33;;;;;;;-145.67;100.00;66521.78;4924962;28;20043;-67
2022/08/31 01:02:40;;;;;;;3.22;1.17;;;;;;;-145.67;100.00;66521.78;4924528;28;20066;-68
2022/08/31 01:05:08;;;;;;;2.88;1.40;;;;;;;-145.67;100.00;66521.78;4943417;28;20246;-69
2022/08/31 01:07:34;;;;;;;2.90;1.20;;;;;;;-145.67;100.00;66521.78;4923663;28;20380;-68
2022/08/31 01:10:00;;;;;;;5.75;1.70;;;;;;;-145.67;100.00;66521.78;4942923;28;20096;-69
2022/08/31 01:12:27;;;;;;;2.03;1.13;;;;;;;-145.67;100.00;66521.78;4923631;28;20043;-68
2022/08/31 01:14:53;;;;;;;2.85;1.27;;;;;;;-145.67;100.00;66521.78;4942324;28;20074;-69
2022/08/31 01:17:21;;;;;;;3.78;1.42;;;;;;;-145.67;100.00;66521.78;4942221;28;20141;-68
2022/08/31 01:19:58;;;;;;;3.72;1.10;;;;;;;-145.67;100.00;66521.78;4942120;28;20118;-69
2022/08/31 01:22:38;;;;;;;2.88;1.20;;;;;;;-145.67;100.00;66521.78;4943157;28;20492;-68
2022/08/31 01:25:04;;;;;;;3.15;1.40;;;;;;;-145.67;100.00;66521.78;4906526;28;20035;-68
2022/08/31 01:27:32;;;;;;;1.80;1.15;;;;;;;-145.67;100.00;66521.78;4923058;28;20097;-68
2022/08/31 01:30:03;;;;;;;2.30;1.10;;;;;;;-145.67;100.00;66521.78;4922474;28;20042;-68
2022/08/31 01:32:29;;;;;;;3.30;1.35;;;;;;;-145.67;100.00;66521.78;4943908;28;20039;-70
2022/08/31 01:34:54;;;;;;;2.60;1.10;;;;;;;-145.67;100.00;66521.78;4907900;28;20069;-68
2022/08/31 01:37:22;;;;;;;4.80;1.30;;;;;;;-145.67;100.00;66521.78;4941339;28;20097;-68
2022/08/31 01:39:50;;;;;;;3.80;1.35;;;;;;;-145.67;100.00;66521.78;4927268;28;20295;-69
2022/08/31 01:42:16;;;;;;;1.63;1.17;;;;;;;-145.67;100.00;66521.78;4938766;28;20042;-69
2022/08/31 01:44:42;;;;;;;4.13;1.42;;;;;;;-145.67;100.00;66521.78;4922774;28;20478;-69
2022/08/31 01:47:07;;;;;;;2.85;1.30;;;;;;;-145.67;100.00;66521.78;4938773;28;20499;-68
2022/08/31 01:49:33;;;;;;;3.33;1.40;;;;;;;-145.67;100.00;66521.78;4941117;28;20031;-68
2022/08/31 01:51:58;;;;;;;3.03;1.60;;;;;;;-145.67;100.00;66521.78;4943600;28;20336;-69
2022/08/31 01:54:26;;;;;;;2.13;1.30;;;;;;;-145.67;100.00;66521.78;4943533;28;20050;-69
2022/08/31 01:56:52;;;;;;;2.47;1.10;;;;;;;-145.67;100.00;66521.78;4943837;28;20071;-69
2022/08/31 01:59:21;;;;;;;3.25;1.40;;;;;;;-145.67;100.00;66521.78;4942555;28;20050;-68
2022/08/31 02:01:50;;;;;;;4.28;1.30;;;;;;;-145.67;100.00;66521.78;4941620;28;20034;-69
2022/08/31 02:04:16;;;;;;;4.10;1.45;;;;;;;-145.67;100.00;66521.78;4941930;28;20082;-69
2022/08/31 02:06:46;;;;;;;6.20;1.35;;;;;;;-145.67;100.00;66521.78;4942199;28;20105;-69
2022/08/31 02:09:12;;;;;;;1.98;1.40;;;;;;;-145.67;100.00;66521.78;4920754;28;20460;-69
2022/08/31 02:11:37;;;;;;;3.75;1.60;;;;;;;-145.67;100.00;66521.78;4943095;28;20722;-69
2022/08/31 02:14:06;;;;;;;3.78;1.60;;;;;;;-145.67;100.00;66521.78;4936191;28;20031;-69
2022/08/31 02:16:32;;;;;;;2.63;1.50;;;;;;;-145.67;100.00;66521.78;4942464;28;20102;-69
2022/08/31 02:18:57;;;;;;;3.13;1.77;;;;;;;-145.67;100.00;66521.78;4913804;28;20912;-69
2022/08/31 02:21:23;;;;;;;4.38;1.50;;;;;;;-145.67;100.00;66521.78;4906195;28;20031;-69
2022/08/31 02:23:48;;;;;;;2.88;1.48;;;;;;;-145.67;100.00;66521.78;4904911;28;20039;-69
2022/08/31 02:26:17;;;;;;;3.53;1.80;;;;;;;-145.67;100.00;66521.78;4942762;28;20089;-69
2022/08/31 02:28:43;;;;;;;2.67;1.50;;;;;;;-145.67;100.00;66521.78;4942881;28;20031;-70
2022/08/31 02:31:10;;;;;;;3.03;1.80;;;;;;;-145.67;100.00;66521.78;4927302;28;20665;-69
2022/08/31 02:33:38;;;;;;;2.28;1.40;;;;;;;-145.67;100.00;66521.78;4940491;28;20538;-69
2022/08/31 02:36:07;;;;;;;4.47;1.73;;;;;;;-145.67;100.00;66521.78;4941592;28;20509;-69
2022/08/31 02:38:34;;;;;;;2.17;1.30;;;;;;;-145.67;100.00;66521.78;4941550;28;20100;-68
2022/08/31 02:40:59;;;;;;;3.22;1.42;;;;;;;-145.67;100.00;66521.78;4941622;28;20395;-68
2022/08/31 02:43:25;;;;;;;2.42;1.52;;;;;;;-145.67;100.00;66521.78;4941848;28;20034;-69
2022/08/31 02:45:51;;;;;;;2.03;1.30;;;;;;;-145.67;100.00;66521.78;4925869;28;20157;-68
2022/08/31 02:48:19;;;;;;;3.35;1.70;;;;;;;-145.67;100.00;66521.78;4941392;28;20037;-68
2022/08/31 02:50:50;;;;;;;6.07;1.70;;;;;;;-145.67;100.00;66521.78;4922412;28;20031;-69
2022/08/31 02:53:18;;;;;;;4.17;1.50;;;;;;;-145.67;100.00;66521.78;4941045;28;20084;-69
2022/08/31 02:55:43;;;;;;;4.40;1.60;;;;;;;-145.67;100.00;66521.78;4925087;28;20278;-68
2022/08/31 02:58:10;;;;;;;2.45;1.38;;;;;;;-145.67;100.00;66521.78;4924462;28;20224;-69
2022/08/31 03:00:36;;;;;;;3.92;1.50;;;;;;;-145.67;100.00;66521.78;4942295;28;20984;-69
2022/08/31 03:03:02;;;;;;;1.77;1.30;;;;;;;-145.67;100.00;66521.78;4941165;28;20495;-69
2022/08/31 03:05:30;;;;;;;3.45;1.50;;;;;;;-145.67;100.00;66521.78;4919151;28;20572;-68
2022/08/31 03:07:56;;;;;;;2.13;1.30;;;;;;;-145.67;100.00;66521.78;4941400;28;20035;-68
2022/08/31 03:10:25;;;;;;;3.42;1.60;;;;;;;-145.67;100.00;66521.78;4923240;28;20031;-68
2022/08/31 03:12:51;;;;;;;3.33;1.52;;;;;;;-145.67;100.00;66521.78;4943467;28;20855;-68
2022/08/31 03:15:21;;;;;;;3.20;1.30;;;;;;;-145.67;100.00;66521.78;4923625;28;20233;-70
2022/08/31 03:17:47;;;;;;;2.35;1.30;;;;;;;-145.67;100.00;66521.78;4940200;28;20070;-69
2022/08/31 03:20:14;;;;;;;3.47;1.50;;;;;;;-145.67;100.00;66521.78;4936692;28;20042;-68
2022/08/31 03:22:40;;;;;;;4.53;1.40;;;;;;;-145.67;100.00;66521.78;4921789;28;20183;-68
2022/08/31 03:25:07;;;;;;;3.83;1.40;;;;;;;-145.67;100.00;66521.78;4916108;28;20767;-69
2022/08/31 03:27:38;;;;;;;2.80;1.65;;;;;;;-145.67;100.00;66521.78;4940579;28;20038;-68
2022/08/31 03:30:06;;;;;;;2.20;1.30;;;;;;;-145.67;100.00;66521.78;4939482;28;20041;-67
2022/08/31 03:32:32;;;;;;;4.97;1.25;;;;;;;-145.67;100.00;66521.78;4941684;28;22294;-68
2022/08/31 03:34:58;;;;;;;2.13;1.15;;;;;;;-145.67;100.00;66521.78;4936368;28;20041;-68
2022/08/31 03:37:26;;;;;;;1.67;1.10;;;;;;;-145.67;100.00;66521.78;4903915;28;20142;-68
2022/08/31 03:39:52;;;;;;;2.63;1.38;;;;;;;-145.67;100.00;66521.78;4901451;28;21613;-68
2022/08/31 03:42:22;;;;;;;2.42;1.30;;;;;;;-145.67;100.00;66521.78;4942281;28;20039;-68
2022/08/31 03:44:48;;;;;;;2.88;1.30;;;;;;;-145.67;100.00;66521.78;4924574;28;20047;-68
2022/08/31 03:47:15;;;;;;;2.17;1.27;;;;;;;-145.67;100.00;66521.78;4923729;28;20101;-67
2022/08/31 03:49:41;;;;;;;4.28;1.33;;;;;;;-145.67;100.00;66521.78;4939665;28;20035;-67
2022/08/31 03:52:07;;;;;;;2.67;1.10;;;;;;;-145.67;100.00;66521.78;4940199;28;20050;-68
2022/08/31 03:54:34;;;;;;;2.45;1.38;;;;;;;-145.67;100.00;66521.78;4940441;28;20039;-68
2022/08/31 03:57:00;;;;;;;2.78;1.10;;;;;;;-145.67;100.00;66521.78;4924607;28;20109;-68
2022/08/31 03:59:28;;;;;;;5.63;1.45;;;;;;;-145.67;100.00;66521.78;4941639;28;20551;-68
2022/08/31 04:01:53;;;;;;;2.33;1.10;;;;;;;-145.67;100.00;66521.78;4940531;28;21492;-68
2022/08/31 04:04:21;;;;;;;1.67;1.15;;;;;;;-145.67;100.00;66521.78;4941650;28;20491;-68
2022/08/31 04:06:49;;;;;;;3.38;1.67;;;;;;;-145.67;100.00;66521.78;4924582;28;20031;-68
2022/08/31 04:09:15;;;;;;;2.30;1.20;;;;;;;-145.67;100.00;66521.78;4940175;28;20292;-68
2022/08/31 04:11:41;;;;;;;3.05;1.10;;;;;;;-145.67;100.00;66521.78;4940143;28;20065;-68
2022/08/31 04:14:07;;;;;;;2.05;1.17;;;;;;;-145.67;100.00;66521.78;4939921;28;20785;-68
2022/08/31 04:16:33;;;;;;;2.72;1.00;;;;;;;-145.67;100.00;66521.78;4920111;28;20062;-67
2022/08/31 04:18:59;;;;;;;2.45;0.90;;;;;;;-145.67;100.00;66521.78;4935300;28;20030;-67
2022/08/31 04:21:26;;;;;;;1.70;0.90;;;;;;;-145.67;100.00;66521.78;4940523;28;20046;-67
2022/08/31 04:23:53;;;;;;;2.90;1.10;;;;;;;-145.67;100.00;66521.78;4941107;28;20125;-69
2022/08/31 04:26:30;;;;;;;3.95;1.00;;;;;;;-145.67;100.00;66521.78;4939636;28;20128;-67
2022/08/31 04:28:59;;;;;;;1.70;1.10;;;;;;;-145.67;100.00;66521.78;4921727;28;20465;-68
2022/08/31 04:31:25;;;;;;;2.88;0.90;;;;;;;-145.67;100.00;66521.78;4946064;28;21681;-68
2022/08/31 04:33:51;;;;;;;1.50;0.90;;;;;;;-145.67;100.00;66521.78;4925656;28;20039;-70
2022/08/31 04:36:21;;;;;;;1.80;0.90;;;;;;;-145.67;100.00;66521.78;4945743;28;20121;-68
2022/08/31 04:38:48;;;;;;;1.60;0.82;;;;;;;-145.67;100.00;66521.78;4943797;28;20034;-68
2022/08/31 04:41:16;;;;;;;2.78;0.90;;;;;;;-145.67;100.00;66521.78;4943410;28;20228;-68
2022/08/31 04:43:45;;;;;;;1.13;0.82;;;;;;;-145.67;100.00;66521.78;4941376;28;21889;-68
2022/08/31 04:46:10;;;;;;;1.80;0.90;;;;;;;-145.67;100.00;66521.78;4943277;28;20141;-67
2022/08/31 04:48:36;;;;;;;4.00;1.10;;;;;;;-145.67;100.00;66521.78;4937031;28;20536;-67
2022/08/31 04:51:04;;;;;;;2.80;0.93;;;;;;;-145.67;100.00;66521.78;4923456;28;20578;-67
2022/08/31 04:53:29;;;;;;;1.65;0.80;;;;;;;-145.67;100.00;66521.78;4921162;28;20175;-68
2022/08/31 04:55:57;;;;;;;1.38;0.70;;;;;;;-145.67;100.00;66521.78;4945668;28;20035;-68
2022/08/31 04:58:23;;;;;;;2.72;0.70;;;;;;;-145.67;100.00;66521.78;4944196;28;20105;-69
2022/08/31 05:00:49;;;;;;;1.65;0.80;;;;;;;-145.67;100.00;66521.78;4908273;28;20547;-68
2022/08/31 05:03:16;;;;;;;1.85;0.80;;;;;;;-145.67;100.00;66521.78;4937917;28;20060;-68
2022/08/31 05:05:41;;;;;;;0.88;0.70;;;;;;;-145.67;100.00;66521.78;4943680;28;20459;-68
2022/08/31 05:08:09;;;;;;;1.08;0.60;;;;;;;-145.67;100.00;66521.78;4943871;28;20046;-69
2022/08/31 05:10:35;;;;;;;1.30;0.73;;;;;;;-145.67;100.00;66521.78;4928164;28;20035;-68
2022/08/31 05:13:01;;;;;;;1.73;0.70;;;;;;;-145.67;100.00;66521.78;4944986;28;20133;-68
2022/08/31 05:15:26;;;;;;;1.00;0.70;;;;;;;-145.67;100.00;66521.78;4927438;28;20322;-68
2022/08/31 05:17:52;;;;;;;1.85;0.60;;;;;;;-145.67;100.00;66521.78;4945202;28;20138;-67
2022/08/31 05:20:17;;;;;;;1.17;0.70;;;;;;;-145.67;100.00;66521.78;4943695;28;20209;-67
2022/08/31 05:22:43;;;;;;;1.67;0.60;;;;;;;-145.67;100.00;66521.78;4911244;28;20123;-68
2022/08/31 05:25:08;;;;;;;1.02;0.55;;;;;;;-145.67;100.00;66521.78;4943007;28;20195;-68
2022/08/31 05:27:35;;;;;;;1.05;0.60;;;;;;;-145.67;100.00;66521.78;4945592;28;21129;-68
2022/08/31 05:30:00;;;;;;;1.10;0.63;;;;;;;-145.67;100.00;66521.78;4942654;28;20097;-68
2022/08/31 05:32:26;;;;;;;0.70;0.60;;;;;;;-145.67;100.00;66521.78;4942859;28;20455;-67
2022/08/31 05:34:54;;;;;;;1.30;0.50;;;;;;;-145.67;100.00;66521.78;4942359;28;20034;-68
2022/08/31 05:37:22;;;;;;;1.00;0.60;;;;;;;-145.67;100.00;66521.78;4941376;28;20046;-68
2022/08/31 05:39:47;;;;;;;0.73;0.60;;;;;;;-145.67;100.00;66521.78;4922501;28;20055;-68
2022/08/31 05:42:15;;;;;;;1.80;0.80;;;;;;;-145.67;100.00;66521.78;4928057;28;20042;-68
2022/08/31 05:44:41;;;;;;;1.00;0.60;;;;;;;-145.67;100.00;66521.78;4921889;28;20650;-68
2022/08/31 05:47:07;;;;;;;0.60;0.60;;;;;;;-145.67;100.00;66521.78;4944261;28;20034;-68
2022/08/31 05:49:33;;;;;;;2.03;0.60;;;;;;;-145.67;100.00;66521.78;4942892;28;20058;-68
2022/08/31 05:51:59;;;;;;;0.70;0.50;;;;;;;-145.67;100.00;66521.78;4926355;28;20047;-69
2022/08/31 05:54:27;;;;;;;2.47;0.63;;;;;;;-145.67;100.00;66521.78;4941696;28;20319;-68
2022/08/31 05:56:53;;;;;;;2.80;0.70;;;;;;;-145.67;100.00;66521.78;4943100;28;20058;-69
2022/08/31 05:59:18;;;;;;;2.22;0.73;;;;;;;-145.67;100.00;66521.78;4943552;28;20472;-68
2022/08/31 06:01:44;;;;;;;1.63;0.85;;;;;;;-145.67;100.00;66521.78;4942882;28;20114;-68
2022/08/31 06:04:10;;;;;;;2.05;0.70;;;;;;;-145.67;100.00;66521.78;4941542;28;20039;-67
2022/08/31 06:06:36;;;;;;;1.90;0.80;;;;;;;-145.67;100.00;66521.78;4942802;28;20518;-68
2022/08/31 06:09:03;;;;;;;0.70;0.60;;;;;;;-145.67;100.00;66521.78;4925942;28;20042;-68
2022/08/31 06:11:29;;;;;;;2.42;0.80;;;;;;;-145.67;100.00;66521.78;4943578;28;20042;-68
2022/08/31 06:13:57;;;;;;;0.90;0.60;;;;;;;-145.67;100.00;66521.78;4940278;28;21847;-68
2022/08/31 06:16:29;;;;;;;1.35;0.70;;;;;;;-145.67;100.00;66521.78;4943343;28;20579;-68
2022/08/31 06:18:57;;;;;;;2.35;0.95;;;;;;;-145.67;100.00;66521.78;4922447;28;20395;-68
2022/08/31 06:21:30;;;;;;;1.13;0.63;;;;;;;-145.67;100.00;66521.78;4923391;28;20042;-67
2022/08/31 06:23:56;;;;;;;3.08;0.90;;;;;;;-145.67;100.00;66521.78;4943796;28;20043;-68
2022/08/31 06:26:23;;;;;;;4.28;0.98;;;;;;;-145.67;100.00;66521.78;4944095;28;20031;-67
2022/08/31 06:28:51;;;;;;;2.85;0.80;;;;;;;-145.67;100.00;66521.78;4942506;28;20305;-69
2022/08/31 06:31:20;;;;;;;1.85;0.80;;;;;;;-145.67;100.00;66521.78;4942963;28;20042;-68
2022/08/31 06:33:51;;;;;;;2.25;0.70;;;;;;;-145.67;100.00;66521.78;4906273;28;20512;-68
2022/08/31 06:36:22;;;;;;;1.42;0.75;;;;;;;-145.67;100.00;66521.78;4906109;28;20502;-67
2022/08/31 06:38:47;;;;;;;1.75;0.70;;;;;;;-145.67;100.00;66521.78;4943666;28;20147;-67
2022/08/31 06:41:20;;;;;;;2.00;0.70;;;;;;;-145.67;100.00;66521.78;4930736;28;20129;-67
2022/08/31 06:43:46;;;;;;;1.27;0.90;;;;;;;-145.67;100.00;66521.78;4926916;28;20073;-68
2022/08/31 06:46:14;;;;;;;2.58;0.70;;;;;;;-145.67;100.00;66521.78;4943550;28;20479;-68
2022/08/31 06:48:39;;;;;;;3.08;1.00;;;;;;;-145.67;100.00;66521.78;4941383;28;20447;-68
2022/08/31 06:51:08;;;;;;;5.57;0.90;;;;;;;-145.67;100.00;66521.78;4941632;28;20420;-68
2022/08/31 06:53:34;;;;;;;2.20;0.80;;;;;;;-145.67;100.00;66521.78;4944578;28;20747;-68
2022/08/31 06:56:09;;;;;;;2.28;0.80;;;;;;;-145.67;100.00;66521.78;4942802;28;20063;-68
2022/08/31 06:58:37;;;;;;;1.90;0.95;;;;;;;-145.67;100.00;66521.78;4937459;28;20114;-68
2022/08/31 07:01:12;;;;;;;4.03;0.80;;;;;;;-145.67;100.00;66521.78;4943003;28;20262;-69
2022/08/31 07:03:39;;;;;;;2.20;0.80;;;;;;;-145.67;100.00;66521.78;4942190;28;20041;-69
2022/08/31 07:06:16;;;;;;;2.20;0.90;;;;;;;-145.67;100.00;66521.78;4926075;28;22529;-68
2022/08/31 07:08:43;;;;;;;1.88;0.70;;;;;;;-145.67;100.00;66521.78;4943300;28;20046;-70
2022/08/31 07:11:19;;;;;;;2.70;0.70;;;;;;;-145.67;100.00;66521.78;4921232;28;20535;-69
2022/08/31 07:13:47;;;;;;;2.35;0.75;;;;;;;-145.67;100.00;66521.78;4942528;28;20415;-69
2022/08/31 07:16:14;;;;;;;1.00;0.63;;;;;;;-145.67;100.00;66521.78;4926668;28;20038;-69
2022/08/31 07:18:41;;;;;;;3.13;0.70;;;;;;;-145.67;100.00;66521.78;4941063;28;20031;-68
2022/08/31 07:21:12;;;;;;;1.48;0.70;;;;;;;-145.67;100.00;66521.78;4940779;28;20041;-69
2022/08/31 07:23:39;;;;;;;0.77;0.60;;;;;;;-145.67;100.00;66521.78;4918608;28;20416;-66
2022/08/31 07:26:09;;;;;;;1.05;0.50;;;;;;;-145.67;100.00;66521.78;4922964;28;20035;-74
2022/08/31 07:28:38;;;;;;;2.40;0.75;;;;;;;-145.67;100.00;66521.78;4939016;28;20039;-72
2022/08/31 07:31:04;;;;;;;2.80;0.80;;;;;;;-145.67;100.00;66521.78;4940471;28;20039;-72
2022/08/31 07:33:36;;;;;;;2.33;0.60;;;;;;;-145.67;100.00;66521.78;4919356;28;20039;-73
2022/08/31 07:36:06;;;;;;;1.63;0.60;;;;;;;-145.67;100.00;66521.78;4934221;28;20674;-75
2022/08/31 07:44:00;;;;;;;1.20;0.60;;;;;;;-145.67;100.00;66521.78;4941344;28;20035;-73
2022/08/31 07:46:28;;;;;;;1.75;0.60;;;;;;;-145.67;100.00;66521.78;4940440;28;21888;-76
2022/08/31 07:48:57;;;;;;;1.73;0.55;;;;;;;-145.67;100.00;66521.78;4940979;28;20046;-74
2022/08/31 07:51:23;;;;;;;1.83;0.63;;;;;;;-145.67;100.00;66521.78;4940221;28;20046;-73
2022/08/31 07:53:50;;;;;;;1.40;0.60;;;;;;;-145.67;100.00;66521.78;4940229;28;20031;-73
2022/08/31 07:56:16;;;;;;;2.00;0.65;;;;;;;-145.67;100.00;66521.78;4922829;28;20045;-72
2022/08/31 07:58:42;;;;;;;1.13;0.60;;;;;;;-145.67;100.00;66521.78;4910099;28;20038;-71
2022/08/31 08:01:08;;;;;;;2.15;0.50;;;;;;;-145.67;100.00;66521.78;4921063;28;20042;-73
2022/08/31 08:03:33;;;;;;;0.80;0.43;;;;;;;-145.67;100.00;66521.78;4941265;28;20031;-72
2022/08/31 08:05:58;;;;;;;2.30;0.60;;;;;;;-145.67;100.00;66521.78;4943205;28;20043;-71
2022/08/31 08:08:24;;;;;;;2.47;0.70;;;;;;;-145.67;100.00;66521.78;4943226;28;20121;-70
2022/08/31 08:10:52;;;;;;;2.17;0.50;;;;;;;-145.67;100.00;66521.78;4943076;28;20079;-72
2022/08/31 08:13:18;;;;;;;2.42;0.60;;;;;;;-145.67;100.00;66521.78;4940814;28;20109;-71
2022/08/31 08:15:44;;;;;;;2.95;0.70;;;;;;;-145.67;100.00;66521.78;4944327;28;20050;-72
2022/08/31 08:18:12;;;;;;;4.38;0.50;;;;;;;-145.67;100.00;66521.78;4921210;28;20046;-74
2022/08/31 08:20:40;;;;;;;2.60;0.60;;;;;;;-145.67;100.00;66521.78;4942629;28;20038;-73
2022/08/31 08:23:11;;;;;;;3.08;0.55;;;;;;;-145.67;100.00;66521.78;4940367;28;20039;-72
2022/08/31 08:25:36;;;;;;;2.17;0.70;;;;;;;-145.67;100.00;66521.78;4942733;28;20039;-72
2022/08/31 08:28:02;;;;;;;2.72;0.65;;;;;;;-145.67;100.00;66521.78;4906841;28;20045;-74
2022/08/31 08:30:32;;;;;;;4.18;0.80;;;;;;;-145.67;100.00;66521.78;4927085;28;20057;-73
2022/08/31 08:33:00;;;;;;;2.55;0.70;;;;;;;-145.67;100.00;66521.78;4939649;28;20198;-71
2022/08/31 08:35:31;;;;;;;3.05;0.80;;;;;;;-145.67;100.00;66521.78;4940926;28;20558;-72
2022/08/31 08:37:58;;;;;;;4.22;0.80;;;;;;;-145.67;100.00;66521.78;4920223;28;20049;-71
2022/08/31 08:40:44;;;;;;;4.25;0.70;;;;;;;-145.67;100.00;66521.78;4939928;28;20035;-71
2022/08/31 08:43:15;;;;;;;3.58;0.68;;;;;;;-145.67;100.00;66521.78;4940846;28;20042;-71
2022/08/31 08:45:43;;;;;;;4.28;0.60;;;;;;;-145.67;100.00;66521.78;4904261;28;20686;-73
2022/08/31 08:48:11;;;;;;;2.05;0.70;;;;;;;-145.67;100.00;66521.78;4942385;28;20038;-71
2022/08/31 08:50:38;;;;;;;2.97;0.80;;;;;;;-145.67;100.00;66521.78;4939832;28;20059;-72
2022/08/31 08:53:09;;;;;;;2.05;0.65;;;;;;;-145.67;100.00;66521.78;4921673;28;20111;-71
2022/08/31 08:55:43;;;;;;;1.55;0.60;;;;;;;-145.67;100.00;66521.78;4940596;28;20034;-70
2022/08/31 08:58:09;;;;;;;2.67;0.60;;;;;;;-145.67;100.00;66521.78;4940851;28;20133;-71
2022/08/31 09:00:37;;;;;;;1.42;0.70;;;;;;;-145.67;100.00;66521.78;4924742;28;20174;-69
2022/08/31 09:03:16;;;;;;;1.98;0.70;;;;;;;-145.67;100.00;66521.78;4942196;28;20054;-70
2022/08/31 09:05:58;;;;;;;4.28;0.70;;;;;;;-145.67;100.00;66521.78;4923249;28;20049;-72
2022/08/31 09:08:42;;;;;;;5.22;0.70;;;;;;;-145.67;100.00;66521.78;4921239;28;20041;-72
2022/08/31 09:11:21;;;;;;;5.45;0.73;;;;;;;-145.67;100.00;66521.78;4939482;28;20408;-70
2022/08/31 09:13:56;;;;;;;7.03;0.65;;;;;;;-145.67;100.00;66521.78;4922185;28;20117;-70
2022/08/31 09:16:56;;;;;;;3.20;0.52;;;;;;;-145.67;100.00;66521.78;4923932;28;20050;-72
2022/08/31 09:19:22;;;;;;;1.58;0.63;;;;;;;-145.67;100.00;66521.78;4942957;28;20035;-72
2022/08/31 09:21:56;;;;;;;1.67;0.50;;;;;;;-145.67;100.00;66521.78;4925214;28;20491;-72
2022/08/31 09:24:28;;;;;;;3.10;0.50;;;;;;;-145.67;100.00;66521.78;4942075;28;20058;-72
2022/08/31 09:27:19;;;;;;;3.53;0.60;;;;;;;-145.67;100.00;66521.78;4926213;28;20768;-71
2022/08/31 09:29:53;;;;;;;2.30;0.50;;;;;;;-145.67;100.00;66521.78;4942761;28;20492;-72
2022/08/31 09:32:30;;;;;;;1.65;0.70;;;;;;;-145.67;100.00;66521.78;4942227;28;20043;-71
2022/08/31 09:35:35;;;;;;;2.70;0.60;;;;;;;-145.67;100.00;66521.78;4926376;28;20043;-73
2022/08/31 09:38:05;;;;;;;1.55;0.70;;;;;;;-145.67;100.00;66521.78;4938524;28;20065;-71
2022/08/31 09:40:42;;;;;;;1.23;0.60;;;;;;;-145.67;100.00;66521.78;4928362;28;20046;-72
2022/08/31 09:43:24;;;;;;;2.83;0.68;;;;;;;-145.67;100.00;66521.78;4925790;28;20544;-69
2022/08/31 09:46:29;;;;;;;2.35;0.80;;;;;;;-145.67;100.00;66521.78;4942917;28;20108;-68
2022/08/31 09:48:57;;;;;;;2.75;0.80;;;;;;;-145.67;100.00;66521.78;4941413;28;20574;-72
2022/08/31 09:51:32;;;;;;;3.03;0.70;;;;;;;-145.67;100.00;66521.78;4944046;28;20055;-70
2022/08/31 09:57:06;;;;;;;4.18;0.80;;;;;;;-145.67;100.00;66521.78;4924166;28;20447;-68
2022/08/31 09:59:45;;;;;;;1.50;0.63;;;;;;;-145.67;100.00;66521.78;4928179;28;20043;-70
2022/08/31 10:02:24;;;;;;;1.67;0.60;;;;;;;-145.67;100.00;66521.78;4940902;28;21386;-71
2022/08/31 10:04:56;;;;;;;1.25;0.73;;;;;;;-145.67;100.00;66521.78;4942081;28;20053;-70
2022/08/31 10:07:30;;;;;;;2.47;0.77;;;;;;;-145.67;100.00;66521.78;4940713;28;20027;-70
2022/08/31 10:10:06;;;;;;;2.38;0.80;;;;;;;-145.67;100.00;66521.78;4943901;28;20039;-70
2022/08/31 10:12:48;;;;;;;2.47;0.68;;;;;;;-145.67;100.00;66521.78;4942996;28;20117;-71
2022/08/31 10:15:24;;;;;;;3.42;0.80;;;;;;;-145.67;100.00;66521.78;4945277;28;20101;-69
2022/08/31 10:18:10;;;;;;;3.60;0.90;;;;;;;-145.67;100.00;66521.78;4941388;28;20054;-70
2022/08/31 10:20:45;;;;;;;2.70;0.70;;;;;;;-145.67;100.00;66521.78;4927941;28;20105;-71
2022/08/31 10:23:24;;;;;;;2.58;0.60;;;;;;;-145.67;100.00;66521.78;4890319;28;20034;-67
2022/08/31 10:25:57;;;;;;;3.42;0.70;;;;;;;-145.67;100.00;66521.78;4937337;28;20034;-70
2022/08/31 10:28:30;;;;;;;2.55;0.68;;;;;;;-145.67;100.00;66521.78;4942054;28;20110;-66
2022/08/31 10:31:09;;;;;;;1.77;0.60;;;;;;;-145.67;100.00;66521.78;4927924;28;20039;-71
2022/08/31 10:36:41;;;;;;;2.05;0.60;;;;;;;-145.67;100.00;66521.78;4927158;28;20031;-73
2022/08/31 10:39:17;;;;;;;1.80;0.73;;;;;;;-145.67;100.00;66521.78;4922550;28;20122;-71
2022/08/31 10:41:48;;;;;;;2.35;0.90;;;;;;;-145.67;100.00;66521.78;4943010;28;20031;-68
2022/08/31 10:44:28;;;;;;;2.28;0.70;;;;;;;-145.67;100.00;66521.78;4921206;28;20500;-71
2022/08/31 10:46:57;;;;;;;2.00;0.85;;;;;;;-145.67;100.00;66521.78;4927115;28;20574;-72
2022/08/31 10:49:23;;;;;;;4.70;0.70;;;;;;;-145.67;100.00;66521.78;4921653;28;20039;-72
2022/08/31 10:52:02;;;;;;;1.50;0.60;;;;;;;-145.67;100.00;66521.78;4923037;28;20441;-71
2022/08/31 10:54:53;;;;;;;2.60;0.85;;;;;;;-145.67;100.00;66521.78;4940020;28;20523;-70
2022/08/31 10:57:38;;;;;;;3.13;0.70;;;;;;;-145.67;100.00;66521.78;4925299;28;20040;-70
2022/08/31 11:00:40;;;;;;;3.47;0.60;;;;;;;-145.67;100.00;66521.78;4939158;28;20130;-72
2022/08/31 11:03:37;;;;;;;1.77;0.70;;;;;;;-145.67;100.00;66521.78;4924328;28;20030;-71
2022/08/31 11:06:21;;;;;;;0.88;0.50;;;;;;;-145.67;100.00;66521.78;4900364;28;20492;-72
2022/08/31 11:09:04;;;;;;;1.42;0.70;;;;;;;-145.67;100.00;66521.78;4942403;28;20039;-73
2022/08/31 11:11:35;;;;;;;1.85;0.80;;;;;;;-145.67;100.00;66521.78;4920556;28;20491;-73
2022/08/31 11:14:23;;;;;;;2.50;0.68;;;;;;;-145.67;100.00;66521.78;4920059;28;20484;-73
2022/08/31 11:17:10;;;;;;;3.20;0.82;;;;;;;-145.67;100.00;66521.78;4940881;28;20104;-74
2022/08/31 11:20:11;;;;;;;2.35;0.80;;;;;;;-145.67;100.00;66521.78;4938832;28;20113;-66
2022/08/31 11:23:04;;;;;;;4.85;0.80;;;;;;;-145.67;100.00;66521.78;4924269;28;20126;-72
2022/08/31 11:25:46;;;;;;;6.43;0.95;;;;;;;-145.67;100.00;66521.78;4926960;28;20131;-74
2022/08/31 11:28:23;;;;;;;2.88;0.80;;;;;;;-145.67;100.00;66521.78;4942003;28;20074;-71
2022/08/31 11:30:48;;;;;;;2.65;0.73;;;;;;;-145.67;100.00;66521.78;4921809;28;20023;-72
2022/08/31 11:33:18;;;;;;;3.60;0.60;;;;;;;-145.67;100.00;66521.78;4937165;28;20043;-72
2022/08/31 11:35:48;;;;;;;3.33;0.70;;;;;;;-145.67;100.00;66521.78;4925128;28;20039;-73
2022/08/31 11:38:53;;;;;;;3.95;1.10;;;;;;;-145.67;100.00;66521.78;4940512;28;20046;-74